Time;durP1;ratioP1;P1;durP2;ratioP2;P2;SDS_P1;SDS_P2;PMS_P1;PMS_P2;Temp;Humidity;BMP_temperature;BMP_pressure;BME280_temperature;BME280_humidity;BME280_pressure;Samples;Min_cycle;Max_cycle;Signal;HPM_P1;HPM_P2
2023/09/22 00:02:10;;;;;;;1999.90;999.90;;;14.70;99.90;;;;;;5038040;28;20526;-76
2023/09/22 00:04:36;;;;;;;1999.90;999.90;;;14.60;99.90;;;;;;5036774;28;20041;-75
2023/09/22 00:07:01;;;;;;;1999.90;999.90;;;14.60;99.90;;;;;;5035373;28;20021;-75
2023/09/22 00:09:27;;;;;;;1999.90;999.90;;;14.60;99.90;;;;;;5035324;28;20057;-74
2023/09/22 00:11:53;;;;;;;1999.90;999.90;;;14.40;99.90;;;;;;5040707;28;20122;-76
2023/09/22 00:14:19;;;;;;;1999.90;999.90;;;14.40;99.90;;;;;;5033390;28;20373;-76
2023/09/22 00:16:44;;;;;;;1999.90;999.90;;;14.50;99.90;;;;;;5043955;28;20052;-75
2023/09/22 00:19:10;;;;;;;1999.90;999.90;;;14.40;99.90;;;;;;5036485;28;20080;-76
2023/09/22 00:21:35;;;;;;;1999.90;999.90;;;14.50;99.90;;;;;;5035920;28;20499;-76
2023/09/22 00:24:02;;;;;;;1999.90;999.90;;;14.50;99.90;;;;;;5036371;28;20127;-76
2023/09/22 00:26:28;;;;;;;1999.90;999.90;;;14.50;99.90;;;;;;5040159;28;20025;-75
2023/09/22 00:28:54;;;;;;;1999.90;999.90;;;14.50;99.90;;;;;;5037068;28;20039;-76
2023/09/22 00:31:19;;;;;;;1999.90;999.90;;;14.30;99.90;;;;;;5035034;28;20044;-76
2023/09/22 00:33:45;;;;;;;1999.90;999.90;;;14.50;99.90;;;;;;5038188;28;20097;-76
2023/09/22 00:36:11;;;;;;;1999.90;999.90;;;14.30;99.90;;;;;;5036673;28;20037;-75
2023/09/22 00:38:37;;;;;;;1999.90;999.90;;;14.30;99.90;;;;;;5036025;28;20116;-75
2023/09/22 00:41:02;;;;;;;1999.90;999.90;;;14.20;99.90;;;;;;5039028;28;20034;-76
2023/09/22 00:43:28;;;;;;;1999.90;999.90;;;14.20;99.90;;;;;;5036789;28;20041;-76
2023/09/22 00:45:54;;;;;;;1999.90;999.90;;;14.20;99.90;;;;;;5033749;28;20037;-77
2023/09/22 00:48:31;;;;;;;1999.90;999.90;;;14.30;99.90;;;;;;5034455;28;20037;-75
2023/09/22 00:50:57;;;;;;;1999.90;999.90;;;14.20;99.90;;;;;;5033020;28;20140;-74
2023/09/22 00:53:24;;;;;;;1999.90;999.90;;;14.20;99.90;;;;;;5038723;28;20036;-76
2023/09/22 00:55:52;;;;;;;1999.90;999.90;;;14.10;99.90;;;;;;5032229;28;20025;-75
2023/09/22 00:58:18;;;;;;;1999.90;999.90;;;14.10;99.90;;;;;;5034536;28;20495;-75
2023/09/22 01:00:49;;;;;;;1999.90;999.90;;;14.00;99.90;;;;;;5037542;28;20402;-74
2023/09/22 01:03:19;;;;;;;1999.90;999.90;;;14.10;99.90;;;;;;5035423;28;20041;-75
2023/09/22 01:05:46;;;;;;;1999.90;999.90;;;14.00;99.90;;;;;;5044567;28;20600;-75
2023/09/22 01:08:12;;;;;;;1999.90;999.90;;;14.20;99.90;;;;;;5037499;28;20060;-75
2023/09/22 01:10:40;;;;;;;1999.90;999.90;;;14.00;99.90;;;;;;5044196;28;20116;-76
2023/09/22 01:13:06;;;;;;;1999.90;999.90;;;14.00;99.90;;;;;;5038926;28;20034;-76
2023/09/22 01:15:37;;;;;;;1999.90;999.90;;;14.10;99.90;;;;;;5042076;28;20663;-75
2023/09/22 01:18:05;;;;;;;1999.90;999.90;;;13.90;99.90;;;;;;5038865;28;20483;-75
2023/09/22 01:20:38;;;;;;;1999.90;999.90;;;14.00;99.90;;;;;;5039089;28;20030;-75
2023/09/22 01:23:03;;;;;;;1999.90;999.90;;;13.80;99.90;;;;;;5039339;28;20032;-76
2023/09/22 01:25:29;;;;;;;1999.90;999.90;;;13.70;99.90;;;;;;5039713;28;20025;-76
2023/09/22 01:27:55;;;;;;;1999.90;999.90;;;13.50;99.90;;;;;;5038406;28;20025;-76
2023/09/22 01:30:20;;;;;;;1999.90;999.90;;;13.40;99.90;;;;;;5033337;28;20511;-76
2023/09/22 01:32:46;;;;;;;1999.90;999.90;;;13.30;99.90;;;;;;5035664;28;20044;-75
2023/09/22 01:35:12;;;;;;;1999.90;999.90;;;13.40;99.90;;;;;;5042407;28;20151;-75
2023/09/22 01:37:52;;;;;;;1999.90;999.90;;;13.40;99.90;;;;;;5035077;28;20117;-76
2023/09/22 01:40:17;;;;;;;1999.90;999.90;;;13.50;99.90;;;;;;5041055;28;20037;-75
2023/09/22 01:42:43;;;;;;;1999.90;999.90;;;13.40;99.90;;;;;;5040369;28;20044;-76
2023/09/22 01:45:10;;;;;;;1999.90;999.90;;;13.40;99.90;;;;;;5035378;28;20125;-76
2023/09/22 01:47:36;;;;;;;1999.90;999.90;;;13.50;99.90;;;;;;5040844;28;20495;-75
2023/09/22 01:50:03;;;;;;;1999.90;999.90;;;13.40;99.90;;;;;;5034612;28;20550;-75
2023/09/22 01:52:29;;;;;;;1999.90;999.90;;;13.40;99.90;;;;;;5038084;28;20043;-76
2023/09/22 01:54:55;;;;;;;1999.90;999.90;;;13.40;99.90;;;;;;5046750;28;20392;-75
2023/09/22 01:57:21;;;;;;;1999.90;999.90;;;13.40;99.90;;;;;;5038688;28;20036;-76
2023/09/22 01:59:47;;;;;;;1999.90;999.90;;;13.50;99.90;;;;;;5032368;28;20052;-75
2023/09/22 02:02:14;;;;;;;1999.90;999.90;;;13.30;99.90;;;;;;5039780;28;20037;-76
2023/09/22 02:04:40;;;;;;;1999.90;999.90;;;13.40;99.90;;;;;;5038441;28;20397;-76
2023/09/22 02:07:07;;;;;;;1999.90;999.90;;;13.40;99.90;;;;;;5042083;28;20022;-74
2023/09/22 02:09:33;;;;;;;1999.90;999.90;;;13.40;99.90;;;;;;5037820;28;20051;-76
2023/09/22 02:11:59;;;;;;;1999.90;999.90;;;13.50;99.90;;;;;;5039087;28;20036;-75
2023/09/22 02:14:25;;;;;;;1999.90;999.90;;;13.60;99.90;;;;;;5039896;28;20045;-75
2023/09/22 02:16:50;;;;;;;1999.90;999.90;;;13.60;99.90;;;;;;5041525;28;20037;-75
2023/09/22 02:19:16;;;;;;;1999.90;999.90;;;13.70;99.90;;;;;;5037431;28;20119;-74
2023/09/22 02:21:42;;;;;;;1999.90;999.90;;;13.60;99.90;;;;;;5035089;28;20034;-76
2023/09/22 02:24:08;;;;;;;1999.90;999.90;;;13.70;99.90;;;;;;5040439;28;20079;-75
2023/09/22 02:26:34;;;;;;;1999.90;999.90;;;13.60;99.90;;;;;;5040968;28;20063;-75
2023/09/22 02:28:59;;;;;;;1999.90;999.90;;;13.50;99.90;;;;;;5031853;28;20611;-76
2023/09/22 02:31:26;;;;;;;1999.90;999.90;;;13.60;99.90;;;;;;5029278;28;20614;-76
2023/09/22 02:33:52;;;;;;;1999.90;999.90;;;13.70;99.90;;;;;;5035927;28;20041;-74
2023/09/22 02:36:18;;;;;;;1999.90;999.90;;;13.60;99.90;;;;;;5041301;28;20094;-75
2023/09/22 02:38:44;;;;;;;1999.90;999.90;;;13.60;99.90;;;;;;5037387;28;20511;-75
2023/09/22 02:41:11;;;;;;;1999.90;999.90;;;13.60;99.90;;;;;;5042688;28;20047;-76
2023/09/22 02:43:37;;;;;;;1999.90;999.90;;;13.60;99.90;;;;;;5035013;28;20034;-75
2023/09/22 02:46:06;;;;;;;1999.90;999.90;;;13.60;99.90;;;;;;5040198;28;20035;-76
2023/09/22 02:48:32;;;;;;;1999.90;999.90;;;13.70;99.90;;;;;;5039014;28;20487;-75
2023/09/22 02:50:58;;;;;;;1999.90;999.90;;;13.70;99.90;;;;;;5036963;28;20115;-75
2023/09/22 02:53:24;;;;;;;1999.90;999.90;;;13.80;99.90;;;;;;5030990;28;20033;-76
2023/09/22 02:55:50;;;;;;;1999.90;999.90;;;13.70;99.90;;;;;;5031963;28;20037;-76
2023/09/22 02:58:16;;;;;;;1999.90;999.90;;;13.70;99.90;;;;;;5043679;28;20354;-75
2023/09/22 03:00:44;;;;;;;1999.90;999.90;;;13.60;99.90;;;;;;5032807;28;20892;-75
2023/09/22 03:03:12;;;;;;;1999.90;999.90;;;13.70;99.90;;;;;;5036435;28;20029;-75
2023/09/22 03:05:38;;;;;;;1999.90;999.90;;;13.60;99.90;;;;;;5033964;28;20107;-75
2023/09/22 03:08:05;;;;;;;1999.90;999.90;;;13.60;99.90;;;;;;5039763;28;20032;-76
2023/09/22 03:10:31;;;;;;;1999.90;999.90;;;13.60;99.90;;;;;;5041414;28;20115;-74
2023/09/22 03:12:57;;;;;;;1999.90;999.90;;;13.60;99.90;;;;;;5034063;28;20495;-76
2023/09/22 03:15:23;;;;;;;1999.90;999.90;;;13.60;99.90;;;;;;5040686;28;20064;-76
2023/09/22 03:17:49;;;;;;;1999.90;999.90;;;13.40;99.90;;;;;;5032241;28;20095;-76
2023/09/22 03:20:17;;;;;;;1999.90;999.90;;;13.50;99.90;;;;;;5038191;28;20071;-75
2023/09/22 03:22:43;;;;;;;1999.90;999.90;;;13.30;99.90;;;;;;5002343;28;20167;-77
2023/09/22 03:25:10;;;;;;;1999.90;999.90;;;13.30;99.90;;;;;;5036910;28;20479;-74
2023/09/22 03:27:36;;;;;;;1999.90;999.90;;;13.40;99.90;;;;;;5035412;28;20033;-75
2023/09/22 03:30:05;;;;;;;1535.78;783.08;;;13.20;99.90;;;;;;5036574;28;20041;-76
2023/09/22 03:32:32;;;;;;;1999.90;999.90;;;13.30;99.90;;;;;;5039400;28;20033;-76
2023/09/22 03:34:58;;;;;;;1999.90;999.90;;;13.30;99.90;;;;;;5041683;28;20660;-76
2023/09/22 03:37:28;;;;;;;1999.90;999.90;;;13.20;99.90;;;;;;5036326;28;20032;-75
2023/09/22 03:39:57;;;;;;;1999.90;999.90;;;13.10;99.90;;;;;;5036898;28;20045;-75
2023/09/22 03:42:23;;;;;;;1999.90;999.90;;;13.10;99.90;;;;;;5024260;28;20065;-77
2023/09/22 03:44:49;;;;;;;1999.90;999.90;;;13.10;99.90;;;;;;5031918;28;20017;-75
2023/09/22 03:47:15;;;;;;;1999.90;999.90;;;13.20;99.90;;;;;;5038047;28;20029;-76
2023/09/22 03:49:40;;;;;;;1999.90;999.90;;;13.20;99.90;;;;;;5034199;28;20029;-76
2023/09/22 03:52:06;;;;;;;1999.90;999.90;;;13.20;99.90;;;;;;5039741;28;20127;-76
2023/09/22 03:54:32;;;;;;;1999.90;999.90;;;13.10;99.90;;;;;;5035655;28;20125;-74
2023/09/22 03:56:57;;;;;;;1999.90;999.90;;;13.10;99.90;;;;;;5035052;28;20033;-77
2023/09/22 03:59:23;;;;;;;1999.90;999.90;;;13.10;99.90;;;;;;5035447;28;20041;-75
2023/09/22 04:01:49;;;;;;;1999.90;999.90;;;13.10;99.90;;;;;;5041464;28;20048;-75
2023/09/22 04:04:15;;;;;;;1999.90;999.90;;;12.90;99.90;;;;;;5036277;28;20204;-75
2023/09/22 04:06:40;;;;;;;1999.90;999.90;;;12.90;99.90;;;;;;5034150;28;20071;-76
2023/09/22 04:09:07;;;;;;;1999.90;999.90;;;12.90;99.90;;;;;;5038878;28;20033;-75
2023/09/22 04:11:34;;;;;;;1999.90;999.90;;;12.90;99.90;;;;;;5033964;28;20135;-75
2023/09/22 04:13:59;;;;;;;1999.90;999.90;;;12.90;99.90;;;;;;5028278;28;20499;-75
2023/09/22 04:16:25;;;;;;;1999.90;999.90;;;12.90;99.90;;;;;;5035567;28;20033;-74
2023/09/22 04:18:54;;;;;;;1999.90;999.90;;;12.90;99.90;;;;;;5035714;28;20036;-74
2023/09/22 04:21:22;;;;;;;1999.90;999.90;;;13.00;99.90;;;;;;5036680;28;20025;-71
2023/09/22 04:23:57;;;;;;;1999.90;999.90;;;13.00;99.90;;;;;;5032776;28;20042;-72
2023/09/22 04:26:29;;;;;;;1999.90;999.90;;;12.90;99.90;;;;;;5034856;28;20108;-72
2023/09/22 04:28:59;;;;;;;1999.90;999.90;;;13.10;99.90;;;;;;5037811;28;20400;-72
2023/09/22 04:31:25;;;;;;;1999.90;999.90;;;13.10;99.90;;;;;;5032238;28;20045;-71
2023/09/22 04:33:52;;;;;;;1999.90;999.90;;;13.20;99.90;;;;;;5032665;28;20100;-72
2023/09/22 04:36:24;;;;;;;1999.90;999.90;;;13.20;99.90;;;;;;5033634;28;20029;-75
2023/09/22 04:38:52;;;;;;;1999.90;999.90;;;13.00;99.90;;;;;;5026468;28;20045;-76
2023/09/22 04:41:21;;;;;;;1999.90;999.90;;;13.10;99.90;;;;;;5028748;28;20029;-74
2023/09/22 04:43:47;;;;;;;1999.90;999.90;;;13.10;99.90;;;;;;5033879;28;21243;-75
2023/09/22 04:46:16;;;;;;;1999.90;999.90;;;13.10;99.90;;;;;;5034924;28;20503;-74
2023/09/22 04:48:42;;;;;;;1999.90;999.90;;;12.90;99.90;;;;;;5029824;28;20095;-75
2023/09/22 04:51:08;;;;;;;1999.90;999.90;;;12.90;99.90;;;;;;5032662;28;20034;-75
2023/09/22 04:53:33;;;;;;;1999.90;999.90;;;13.10;99.90;;;;;;5037354;28;20036;-76
2023/09/22 04:56:04;;;;;;;1999.90;999.90;;;13.10;99.90;;;;;;5034590;28;20464;-76
2023/09/22 04:58:30;;;;;;;;;;;13.00;99.90;;;;;;5035196;28;20052;-73
2023/09/22 05:00:58;;;;;;;1999.90;999.90;;;13.10;99.90;;;;;;5033924;28;19961;-75
2023/09/22 05:03:25;;;;;;;1999.90;999.90;;;13.10;99.90;;;;;;5032923;28;20020;-76
2023/09/22 05:05:51;;;;;;;1999.90;999.90;;;13.10;99.90;;;;;;5035504;28;20103;-75
2023/09/22 05:08:17;;;;;;;1999.90;999.90;;;13.00;99.90;;;;;;5040622;28;20055;-76
2023/09/22 05:10:49;;;;;;;1999.90;999.90;;;13.20;99.90;;;;;;5030240;28;20030;-76
2023/09/22 05:13:18;;;;;;;1999.90;999.90;;;13.10;99.90;;;;;;5029804;28;20029;-76
2023/09/22 05:15:45;;;;;;;1999.90;999.90;;;13.00;99.90;;;;;;5035498;28;20021;-77
2023/09/22 05:18:14;;;;;;;1999.90;999.90;;;13.00;99.90;;;;;;5029311;28;20025;-74
2023/09/22 05:20:40;;;;;;;1999.90;999.90;;;13.00;99.90;;;;;;5032002;28;20495;-77
2023/09/22 05:23:09;;;;;;;1999.90;999.90;;;13.10;99.90;;;;;;5036299;28;20037;-78
2023/09/22 05:25:40;;;;;;;1999.90;999.90;;;13.10;99.90;;;;;;5031257;28;20104;-81
2023/09/22 05:28:08;;;;;;;1999.90;999.90;;;13.10;99.90;;;;;;5028945;28;20041;-84
2023/09/22 05:30:38;;;;;;;1999.90;999.90;;;13.20;99.90;;;;;;5039677;28;20041;-79
2023/09/22 05:33:07;;;;;;;1999.90;999.90;;;13.30;99.90;;;;;;5029573;28;20037;-81
2023/09/22 05:35:35;;;;;;;1999.90;999.90;;;13.30;99.90;;;;;;5034463;28;20029;-80
2023/09/22 05:38:01;;;;;;;1999.90;999.90;;;13.30;99.90;;;;;;5031113;28;20663;-78
2023/09/22 05:40:27;;;;;;;1999.90;999.90;;;13.20;99.90;;;;;;5031775;28;20029;-79
2023/09/22 05:42:55;;;;;;;1999.90;999.90;;;13.20;99.90;;;;;;5026592;28;20120;-85
2023/09/22 05:45:21;;;;;;;1999.90;999.90;;;13.30;99.90;;;;;;5024298;28;20056;-75
2023/09/22 05:47:46;;;;;;;1999.90;999.90;;;13.20;99.90;;;;;;5030116;28;20627;-74
2023/09/22 05:50:12;;;;;;;1999.90;999.90;;;13.30;99.90;;;;;;5036475;28;20065;-76
2023/09/22 05:52:38;;;;;;;1999.90;999.90;;;13.30;99.90;;;;;;5037330;28;20105;-74
2023/09/22 05:55:04;;;;;;;1999.90;999.90;;;13.40;99.90;;;;;;5030565;28;20030;-74
2023/09/22 05:57:30;;;;;;;1999.90;999.90;;;13.40;99.90;;;;;;5036623;28;20435;-74
2023/09/22 05:59:57;;;;;;;1999.90;999.90;;;13.30;99.90;;;;;;5034995;28;20029;-74
2023/09/22 06:02:23;;;;;;;1999.90;999.90;;;13.30;99.90;;;;;;5036814;28;20017;-75
2023/09/22 06:04:52;;;;;;;1999.90;999.90;;;13.40;99.90;;;;;;5035982;28;20032;-76
2023/09/22 06:07:20;;;;;;;1999.90;999.90;;;13.30;99.90;;;;;;5029395;28;20032;-75
2023/09/22 06:09:46;;;;;;;1999.90;999.90;;;13.30;99.90;;;;;;5038341;28;20085;-75
2023/09/22 06:12:11;;;;;;;1999.90;999.90;;;13.30;99.90;;;;;;5036425;28;20029;-74
2023/09/22 06:14:39;;;;;;;1999.90;999.90;;;13.50;99.90;;;;;;5035020;28;20517;-75
2023/09/22 06:17:25;;;;;;;1999.90;999.90;;;13.40;99.90;;;;;;5038309;28;20034;-75
2023/09/22 06:19:51;;;;;;;1999.90;999.90;;;13.40;99.90;;;;;;5033825;28;20467;-75
2023/09/22 06:22:17;;;;;;;1999.90;999.90;;;13.50;99.90;;;;;;5033331;28;20061;-75
2023/09/22 06:24:43;;;;;;;1999.90;999.90;;;13.40;99.90;;;;;;5031686;28;20080;-76
2023/09/22 06:27:08;;;;;;;1999.90;999.90;;;13.50;99.90;;;;;;5028327;28;20481;-75
2023/09/22 06:29:34;;;;;;;1999.90;999.90;;;13.40;99.90;;;;;;5031896;28;20534;-75
2023/09/22 06:32:00;;;;;;;1999.90;999.90;;;13.50;99.90;;;;;;5035316;28;20137;-76
2023/09/22 06:34:25;;;;;;;1999.90;999.90;;;13.50;99.90;;;;;;5036949;28;20054;-74
2023/09/22 06:36:51;;;;;;;1999.90;999.90;;;13.40;99.90;;;;;;5029953;28;20800;-76
2023/09/22 06:39:17;;;;;;;1999.90;999.90;;;13.20;99.90;;;;;;5019097;28;20048;-76
2023/09/22 06:41:42;;;;;;;1999.90;999.90;;;13.10;99.90;;;;;;5045779;28;20546;-76
2023/09/22 06:44:08;;;;;;;1999.90;999.90;;;13.20;99.90;;;;;;5041963;28;20030;-75
2023/09/22 06:46:35;;;;;;;1999.90;999.90;;;13.20;99.90;;;;;;5038670;28;20032;-75
2023/09/22 06:49:05;;;;;;;1999.90;999.90;;;13.30;99.90;;;;;;5034737;28;20025;-75
2023/09/22 06:51:31;;;;;;;1999.90;999.90;;;13.20;99.90;;;;;;5035990;28;20037;-76
2023/09/22 06:53:57;;;;;;;1999.90;999.90;;;13.30;99.90;;;;;;5031287;28;20128;-76
2023/09/22 06:56:23;;;;;;;1999.90;999.90;;;13.30;99.90;;;;;;5035262;28;20505;-75
2023/09/22 06:58:49;;;;;;;1999.90;999.90;;;13.40;99.90;;;;;;5028399;28;20042;-74
2023/09/22 07:01:16;;;;;;;1999.90;999.90;;;13.30;99.90;;;;;;5038332;28;20100;-75
2023/09/22 07:03:46;;;;;;;1999.90;999.90;;;13.50;99.90;;;;;;5034621;28;20021;-76
2023/09/22 07:06:14;;;;;;;1999.90;999.90;;;13.30;99.90;;;;;;5038925;28;20140;-75
2023/09/22 07:08:41;;;;;;;1999.90;999.90;;;13.30;99.90;;;;;;5033956;28;20107;-76
2023/09/22 07:11:08;;;;;;;1999.90;999.90;;;13.10;99.90;;;;;;5036226;28;20044;-76
2023/09/22 07:13:38;;;;;;;1999.90;999.90;;;13.10;99.90;;;;;;5031985;28;20033;-77
2023/09/22 07:16:04;;;;;;;1999.90;999.90;;;13.40;99.90;;;;;;5031468;28;20032;-76
2023/09/22 07:18:30;;;;;;;1999.90;999.90;;;13.40;99.90;;;;;;5034267;28;20434;-76
2023/09/22 07:20:56;;;;;;;1999.90;999.90;;;13.50;99.90;;;;;;5029909;28;20156;-76
2023/09/22 07:23:22;;;;;;;1999.90;999.90;;;13.40;99.90;;;;;;5020442;28;20579;-77
2023/09/22 07:26:06;;;;;;;1999.90;999.90;;;13.20;99.90;;;;;;5028518;28;20060;-75
2023/09/22 07:28:34;;;;;;;1999.90;999.90;;;13.10;99.90;;;;;;5029085;28;20013;-76
2023/09/22 07:30:59;;;;;;;1999.90;999.90;;;12.90;99.90;;;;;;5034234;28;20059;-78
2023/09/22 07:33:32;;;;;;;1999.90;999.90;;;12.80;99.90;;;;;;5031868;28;20025;-74
2023/09/22 07:35:59;;;;;;;1999.90;999.90;;;12.80;99.90;;;;;;5029968;28;20079;-74
2023/09/22 07:38:26;;;;;;;1999.90;999.90;;;13.00;99.90;;;;;;5036660;28;20475;-76
2023/09/22 07:40:52;;;;;;;1518.70;767.05;;;12.90;99.90;;;;;;5033103;28;20082;-76
2023/09/22 07:43:18;;;;;;;1999.90;999.90;;;12.90;99.90;;;;;;5038427;28;20029;-77
2023/09/22 07:45:45;;;;;;;1999.90;999.90;;;12.90;99.90;;;;;;5034724;28;20395;-75
2023/09/22 07:48:11;;;;;;;1999.90;999.90;;;12.80;99.90;;;;;;5032133;28;20082;-75
2023/09/22 07:50:39;;;;;;;1999.90;999.90;;;12.90;99.90;;;;;;5038943;28;20029;-74
2023/09/22 07:53:05;;;;;;;1999.90;999.90;;;12.90;99.90;;;;;;5035366;28;20021;-75
2023/09/22 07:55:31;;;;;;;1999.90;999.90;;;12.80;99.90;;;;;;5035400;28;20372;-75
2023/09/22 07:57:57;;;;;;;1999.90;999.90;;;12.90;99.90;;;;;;5037010;28;20041;-75
2023/09/22 08:00:26;;;;;;;1999.90;999.90;;;12.90;99.90;;;;;;5035550;28;20537;-75
2023/09/22 08:02:52;;;;;;;1999.90;999.90;;;12.80;99.90;;;;;;5034178;28;20039;-75
2023/09/22 08:05:18;;;;;;;1999.90;999.90;;;12.90;99.90;;;;;;5067014;28;20550;-74
2023/09/22 08:07:45;;;;;;;1999.90;999.90;;;13.00;99.90;;;;;;5040319;28;20038;-75
2023/09/22 08:10:12;;;;;;;1999.90;999.90;;;13.00;99.90;;;;;;5037393;28;20029;-76
2023/09/22 08:12:41;;;;;;;1999.90;999.90;;;13.10;99.90;;;;;;5034483;28;20068;-75
2023/09/22 08:15:08;;;;;;;1999.90;999.90;;;13.30;99.90;;;;;;5036545;28;20041;-76
2023/09/22 08:17:34;;;;;;;1999.90;999.90;;;13.40;99.90;;;;;;5040608;28;20025;-77
2023/09/22 08:20:00;;;;;;;1999.90;999.90;;;13.30;99.90;;;;;;5032946;28;20049;-75
2023/09/22 08:22:26;;;;;;;1999.90;999.90;;;13.30;99.90;;;;;;5038377;28;20033;-77
2023/09/22 08:24:52;;;;;;;1999.90;999.90;;;13.30;99.90;;;;;;5034301;28;20051;-75
2023/09/22 08:27:18;;;;;;;1999.90;999.90;;;13.40;99.90;;;;;;5030698;28;20049;-75
2023/09/22 08:29:44;;;;;;;1999.90;999.90;;;13.30;99.90;;;;;;5036773;28;20047;-76
2023/09/22 08:32:10;;;;;;;1999.90;999.90;;;13.40;99.90;;;;;;5037566;28;20471;-76
2023/09/22 08:34:38;;;;;;;1999.90;999.90;;;13.40;99.90;;;;;;5030524;28;20033;-75
2023/09/22 08:37:04;;;;;;;1999.90;999.90;;;13.40;99.90;;;;;;5036872;28;20025;-74
2023/09/22 08:39:31;;;;;;;1999.90;999.90;;;13.50;99.90;;;;;;5039928;28;20036;-74
2023/09/22 08:41:58;;;;;;;1999.90;999.90;;;13.30;99.90;;;;;;5036323;28;20085;-76
2023/09/22 08:44:25;;;;;;;1999.90;999.90;;;13.30;99.90;;;;;;5034877;28;20033;-76
2023/09/22 08:46:52;;;;;;;1999.90;999.90;;;13.30;99.90;;;;;;5034867;28;20086;-76
2023/09/22 08:49:21;;;;;;;1999.90;999.90;;;13.20;99.90;;;;;;5037448;28;20115;-76
2023/09/22 08:51:49;;;;;;;1999.90;999.90;;;13.30;99.90;;;;;;5036173;28;20437;-75
2023/09/22 08:54:15;;;;;;;1999.90;999.90;;;13.30;99.90;;;;;;5032750;28;20026;-76
2023/09/22 08:56:41;;;;;;;1999.90;999.90;;;13.20;99.90;;;;;;5034188;28;20137;-76
2023/09/22 08:59:10;;;;;;;1999.90;999.90;;;13.30;99.90;;;;;;5029150;28;20033;-75
2023/09/22 09:01:36;;;;;;;1999.90;999.90;;;13.20;99.90;;;;;;5036921;28;20409;-75
2023/09/22 09:04:34;;;;;;;1999.90;999.90;;;13.10;99.90;;;;;;5035080;28;20101;-74
2023/09/22 09:07:02;;;;;;;1999.90;999.90;;;12.90;99.90;;;;;;5034753;28;20052;-75
2023/09/22 09:09:48;;;;;;;1999.90;999.90;;;12.90;99.90;;;;;;5036066;28;20017;-75
2023/09/22 09:12:14;;;;;;;1999.90;999.90;;;13.00;99.90;;;;;;5037528;28;20029;-75
2023/09/22 09:14:42;;;;;;;1999.90;999.90;;;13.00;99.90;;;;;;5040938;28;20037;-75
2023/09/22 09:17:19;;;;;;;1999.90;999.90;;;12.90;99.90;;;;;;5038455;28;20056;-75
2023/09/22 09:19:54;;;;;;;1999.90;999.90;;;12.90;99.90;;;;;;5032434;28;20029;-75
2023/09/22 09:22:20;;;;;;;1999.90;999.90;;;12.80;99.90;;;;;;5040216;28;20654;-75
2023/09/22 09:24:46;;;;;;;1999.90;999.90;;;12.80;99.90;;;;;;5038673;28;20033;-75
2023/09/22 09:27:19;;;;;;;1999.90;999.90;;;12.80;99.90;;;;;;5041304;28;20105;-74
2023/09/22 09:29:46;;;;;;;1999.90;999.90;;;12.80;99.90;;;;;;5039709;28;20120;-75
2023/09/22 09:32:22;;;;;;;1999.90;999.90;;;12.70;99.90;;;;;;5039503;28;20096;-75
2023/09/22 09:34:48;;;;;;;1999.90;999.90;;;12.70;99.90;;;;;;5048993;28;20033;-75
2023/09/22 09:37:14;;;;;;;1999.90;999.90;;;12.70;99.90;;;;;;5038843;28;20044;-75
2023/09/22 09:39:49;;;;;;;1999.90;999.90;;;12.70;99.90;;;;;;5039442;28;20034;-76
2023/09/22 09:42:17;;;;;;;1999.90;999.90;;;12.70;99.90;;;;;;5043901;28;20032;-75
2023/09/22 09:44:50;;;;;;;1999.90;999.90;;;12.60;99.90;;;;;;5032537;28;20025;-75
2023/09/22 09:47:32;;;;;;;1999.90;999.90;;;12.50;99.90;;;;;;5035625;28;20492;-76
2023/09/22 09:49:58;;;;;;;1999.90;999.90;;;12.70;99.90;;;;;;5037615;28;20056;-76
2023/09/22 09:52:28;;;;;;;1999.90;999.90;;;12.50;99.90;;;;;;5038029;28;20039;-76
2023/09/22 09:55:07;;;;;;;1999.90;999.90;;;12.60;99.90;;;;;;5038905;28;20029;-75
2023/09/22 09:57:36;;;;;;;1999.90;999.90;;;12.60;99.90;;;;;;5038439;28;20080;-75
2023/09/22 10:00:11;;;;;;;1999.90;999.90;;;12.60;99.90;;;;;;5043642;28;20056;-76
2023/09/22 10:02:40;;;;;;;1999.90;999.90;;;12.50;99.90;;;;;;5041897;28;20055;-75
2023/09/22 10:05:07;;;;;;;1999.90;999.90;;;12.60;99.90;;;;;;5041341;28;20026;-76
2023/09/22 10:07:36;;;;;;;1999.90;999.90;;;12.60;99.90;;;;;;5040982;28;20074;-75
2023/09/22 10:10:05;;;;;;;1999.90;999.90;;;12.70;99.90;;;;;;5045995;28;20175;-76
2023/09/22 10:12:31;;;;;;;1999.90;999.90;;;12.70;99.90;;;;;;5038375;28;20515;-76
2023/09/22 10:15:01;;;;;;;1999.90;999.90;;;12.70;99.90;;;;;;5039057;28;20106;-77
2023/09/22 10:17:28;;;;;;;1999.90;999.90;;;12.80;99.90;;;;;;5033328;28;20021;-76
2023/09/22 10:19:55;;;;;;;1999.90;999.90;;;12.70;99.90;;;;;;5030873;28;20167;-74
2023/09/22 10:22:21;;;;;;;1999.90;999.90;;;12.70;99.90;;;;;;5037080;28;20037;-74
2023/09/22 10:25:12;;;;;;;1999.90;999.90;;;12.80;99.90;;;;;;5032304;28;20030;-75
2023/09/22 10:27:54;;;;;;;1999.90;999.90;;;12.90;99.90;;;;;;5033185;28;20108;-75
2023/09/22 10:30:30;;;;;;;1999.90;999.90;;;12.80;99.90;;;;;;5031314;28;20052;-74
2023/09/22 10:33:16;;;;;;;1999.90;999.90;;;12.80;99.90;;;;;;5026852;28;20053;-75
2023/09/22 10:35:42;;;;;;;1999.90;999.90;;;12.90;99.90;;;;;;5023791;28;20411;-76
2023/09/22 10:38:10;;;;;;;1999.90;999.90;;;13.00;99.90;;;;;;5034599;28;20037;-76
2023/09/22 10:40:36;;;;;;;1999.90;999.90;;;13.00;99.90;;;;;;5037571;28;20483;-76
2023/09/22 10:43:03;;;;;;;1999.90;999.90;;;12.90;99.90;;;;;;5037466;28;20041;-75
2023/09/22 10:45:29;;;;;;;1999.90;999.90;;;12.90;99.90;;;;;;5038090;28;20033;-77
2023/09/22 10:47:58;;;;;;;1999.90;999.90;;;12.90;99.90;;;;;;5035514;28;20029;-76
2023/09/22 10:50:31;;;;;;;1999.90;999.90;;;13.00;99.90;;;;;;5039453;28;20052;-75
2023/09/22 10:53:04;;;;;;;1999.90;999.90;;;12.90;99.90;;;;;;5033549;28;20049;-79
2023/09/22 10:55:41;;;;;;;1999.90;999.90;;;13.00;99.90;;;;;;5031290;28;20120;-79
2023/09/22 10:58:22;;;;;;;1999.90;999.90;;;12.90;99.90;;;;;;5036922;28;20449;-79
2023/09/22 11:00:56;;;;;;;1999.90;999.90;;;12.70;99.90;;;;;;5030145;28;20033;-82
2023/09/22 11:03:21;;;;;;;1999.90;999.90;;;12.50;99.90;;;;;;5050763;28;20044;-79
2023/09/22 11:05:57;;;;;;;1999.90;999.90;;;12.60;99.90;;;;;;5040873;28;20025;-80
2023/09/22 11:08:23;;;;;;;1999.90;999.90;;;12.40;99.90;;;;;;5044590;28;20033;-79
2023/09/22 11:10:51;;;;;;;1999.90;999.90;;;12.30;99.90;;;;;;5037852;28;20091;-79
2023/09/22 11:13:18;;;;;;;1999.90;999.90;;;12.30;99.90;;;;;;5042427;28;20072;-80
2023/09/22 11:15:56;;;;;;;1999.90;999.90;;;12.30;99.90;;;;;;5032652;28;20037;-81
2023/09/22 11:18:37;;;;;;;1999.90;999.90;;;12.50;99.90;;;;;;5039834;28;20091;-79
2023/09/22 11:21:05;;;;;;;1999.90;999.90;;;12.40;99.90;;;;;;5036469;28;20036;-79
2023/09/22 11:23:31;;;;;;;1999.90;999.90;;;12.20;99.90;;;;;;5033744;28;20020;-79
2023/09/22 11:25:59;;;;;;;1999.90;999.90;;;12.20;99.90;;;;;;5030563;28;20076;-79
2023/09/22 11:28:26;;;;;;;1999.90;999.90;;;12.30;99.90;;;;;;5035067;28;20051;-80
2023/09/22 11:30:53;;;;;;;1999.90;999.90;;;12.30;99.90;;;;;;5037171;28;20069;-80
2023/09/22 11:33:19;;;;;;;1999.90;999.90;;;12.30;99.90;;;;;;5041705;28;20754;-78
2023/09/22 11:35:47;;;;;;;1999.90;999.90;;;12.20;99.90;;;;;;5037708;28;20636;-80
2023/09/22 11:38:34;;;;;;;1999.90;999.90;;;12.20;99.90;;;;;;5042698;28;20030;-78
2023/09/22 11:41:10;;;;;;;1999.90;999.90;;;12.20;99.90;;;;;;5041322;28;20037;-82
2023/09/22 11:43:41;;;;;;;1999.90;999.90;;;11.90;99.90;;;;;;5040410;28;20029;-81
2023/09/22 11:46:07;;;;;;;1999.90;999.90;;;11.90;99.90;;;;;;5033998;28;20026;-81
2023/09/22 11:49:02;;;;;;;1999.90;999.90;;;11.80;99.90;;;;;;5039442;28;20052;-80
2023/09/22 11:51:40;;;;;;;1999.90;999.90;;;12.00;99.90;;;;;;5038325;28;20044;-82
2023/09/22 11:54:10;;;;;;;1999.90;999.90;;;11.70;99.90;;;;;;5037734;28;20037;-80
2023/09/22 11:56:36;;;;;;;1999.90;999.90;;;11.80;99.90;;;;;;5036410;28;20025;-78
2023/09/22 11:59:12;;;;;;;1999.90;999.90;;;11.80;99.90;;;;;;5041094;28;20038;-78
2023/09/22 12:01:39;;;;;;;1999.90;999.90;;;11.70;99.90;;;;;;5037927;28;20056;-80
2023/09/22 12:04:05;;;;;;;1999.90;999.90;;;12.00;99.90;;;;;;5042665;28;20074;-81